Jump to content


DELTA AIRLINES FLIGHT DL162 FLOWN ON 04-09-2018 BY CAPTAIN JIM BOERMAN

Pilot StatsCaptain Jim Boerman (LDP136) • 4,870.7 total hours • 1,472 total flights [View Logbook]
FLIGHT DETAILS
StatusReceived and approved on 2018-04-09 at 16:04:25
Origin AirportMinneapolis-St Paul Intl (KMSP) • Minneapolis, Minnesota, United States (841 feet MSL)
Filed Flight PlanKMSP NICKL J68 DLL J34 BAE J36 DABJU J68 FNT Q824 HOCKE Q905 SIKBO Q907 MIILS N563A NEEKO NATT BEXET LIFFY UL975 WAL UM16 DOLAS UL603 BASNO EHAM
Destination AirportSchiphol (EHAM) • Amsterdam, Netherlands (-11 feet MSL)
Alternate AirportDusseldorf (EDDL) • Dusseldorf, Germany (147 feet MSL)
AirlineDelta Airlines
AircraftBoeing 777-200LR (77L / B777-200LR)
FS Aircraft UsedPMDG 777-232LR Delta Air Lines
Cruising AltitudeFL350
Distance Flown3,609 nautical miles
Passengers Onboard115 passengers (38.21% full)
DEPARTURE DETAILS
Time Out07:10:10
Taxi Data522,805 lbs total with 122,831 lbs of fuel onboard
Takeoff Data07:23:43 (14 minutes after leaving gate/ramp) • 521,366 lbs total • 9° pitch at 174 knots
Departure METARKMSP 091053Z 35004KT 5SM BR OVC075 M04/M05 A3017 RMK AO2 SLP228 T10441050
ARRIVAL DETAILS
Landing Data22:02:40 • 418,136 lbs total • 1° pitch doing 141 knots at a rate of -787.40 feet/minute with 17,155 lbs of fuel onboard
Time In22:14:23 (12 minutes after landing)
Ramp Weight417,130 lbs total
Total Fuel Used105,676 lbs
Total Block Time08:04:10 (8.1 hours) while 25 minutes were spent on the ground
Arrival METAREHAM 091955Z 03008KT 330V140 CAVOK 11/08 Q1002 NOSIG
MISCELLANEOUS DETAILS
LiveDISPATCH Version4.8.3.1
FS Version
FSUIPC Version5.12
OS VersionWindows 7 32-bit
Screen Resolution1920 x 1080
Pilot's CommentsNo Comments Reported
FLIGHT MAP